createdAt,value
2018-12-30T00:01:38.193Z,101403.77
2018-12-30T00:04:06.497Z,101402.85
2018-12-30T00:06:34.840Z,101402.73
2018-12-30T00:09:03.173Z,101404.81
2018-12-30T00:11:31.496Z,101404.09
2018-12-30T00:13:59.865Z,101402.86
2018-12-30T00:16:28.264Z,101400.58
2018-12-30T00:18:56.593Z,101401.59
2018-12-30T00:21:24.977Z,101400.58
2018-12-30T00:23:53.563Z,101401.77
2018-12-30T00:26:22.140Z,101404.47
2018-12-30T00:28:50.676Z,101398.50
2018-12-30T00:31:19.162Z,101392.98
2018-12-30T00:33:47.860Z,101393.05
2018-12-30T00:36:16.558Z,101386.72
2018-12-30T00:38:44.705Z,101388.30
2018-12-30T00:41:13.296Z,101390.10
2018-12-30T00:43:41.650Z,101388.84
2018-12-30T00:46:10.001Z,101386.40
2018-12-30T00:48:38.404Z,101386.64
2018-12-30T00:51:06.741Z,101383.30
2018-12-30T00:53:35.190Z,101379.81
2018-12-30T00:56:03.516Z,101377.31
2018-12-30T00:58:31.849Z,101376.25
2018-12-30T01:01:00.185Z,101378.64
2018-12-30T01:03:28.525Z,101373.49
2018-12-30T01:05:57.053Z,101370.02
2018-12-30T01:08:25.381Z,101370.22
2018-12-30T01:10:55.120Z,101365.98
2018-12-30T01:13:22.846Z,101364.09
2018-12-30T01:15:51.175Z,101359.16
2018-12-30T01:18:19.522Z,101358.44
2018-12-30T01:20:47.861Z,101356.52
2018-12-30T01:23:16.189Z,101352.67
2018-12-30T01:25:44.540Z,101353.00
2018-12-30T01:28:12.851Z,101350.89
2018-12-30T01:30:41.180Z,101348.78
2018-12-30T01:33:09.506Z,101352.76
2018-12-30T01:35:37.960Z,101350.39
2018-12-30T01:38:06.293Z,101350.70
2018-12-30T01:40:34.610Z,101346.77
2018-12-30T01:43:02.945Z,101344.33
2018-12-30T01:45:31.265Z,101339.63
2018-12-30T01:47:59.598Z,101336.20
2018-12-30T01:50:27.917Z,101335.03
2018-12-30T01:52:56.249Z,101336.23
2018-12-30T01:55:24.576Z,101336.76
2018-12-30T01:57:52.923Z,101337.84
2018-12-30T02:00:21.257Z,101342.80
2018-12-30T02:02:49.580Z,101342.67
2018-12-30T02:05:17.914Z,101338.82
2018-12-30T02:07:46.239Z,101333.47
2018-12-30T02:10:14.574Z,101330.78
2018-12-30T02:12:42.903Z,101328.18
2018-12-30T02:15:11.238Z,101323.92
2018-12-30T02:17:39.565Z,101325.48
2018-12-30T02:20:07.895Z,101321.24
2018-12-30T02:22:36.210Z,101322.78
2018-12-30T02:25:04.547Z,101322.17
2018-12-30T02:27:32.865Z,101319.60
2018-12-30T02:30:01.446Z,101316.49
2018-12-30T02:32:29.512Z,101317.89
2018-12-30T02:34:57.832Z,101310.84
2018-12-30T02:37:26.170Z,101310.95
2018-12-30T02:39:54.488Z,101304.87
2018-12-30T02:42:22.825Z,101301.56
2018-12-30T02:44:51.141Z,101301.03
2018-12-30T02:47:19.483Z,101302.18
2018-12-30T02:49:47.813Z,101299.27
2018-12-30T02:52:16.139Z,101298.75
2018-12-30T02:54:44.497Z,101300.05
2018-12-30T02:57:12.802Z,101290.06
2018-12-30T02:59:41.138Z,101290.81
2018-12-30T03:02:09.458Z,101286.97
2018-12-30T03:04:37.806Z,101284.64
2018-12-30T03:07:06.414Z,101284.74
2018-12-30T03:09:34.755Z,101278.68
2018-12-30T03:12:03.073Z,101276.56
2018-12-30T03:14:31.418Z,101278.99
2018-12-30T03:16:59.755Z,101276.20
2018-12-30T03:19:28.093Z,101266.11
2018-12-30T03:21:59.271Z,101261.90
2018-12-30T03:24:24.751Z,101263.38
2018-12-30T03:26:53.085Z,101257.32
2018-12-30T03:29:21.418Z,101257.31
2018-12-30T03:31:49.752Z,101263.64
2018-12-30T03:34:18.065Z,101258.39
2018-12-30T03:36:46.403Z,101259.95
2018-12-30T03:39:14.737Z,101267.63
2018-12-30T03:41:43.050Z,101266.72
2018-12-30T03:44:11.451Z,101263.24
2018-12-30T03:46:39.718Z,101268.82
2018-12-30T03:49:08.040Z,101259.73
2018-12-30T03:51:36.385Z,101255.70
2018-12-30T03:54:04.720Z,101250.66
2018-12-30T03:56:33.053Z,101253.35
2018-12-30T03:59:01.379Z,101253.76
2018-12-30T04:01:29.706Z,101256.87
2018-12-30T04:03:59.542Z,101248.80
2018-12-30T04:06:27.876Z,101246.60
2018-12-30T04:08:56.205Z,101250.94
2018-12-30T04:11:24.545Z,101248.75
2018-12-30T04:13:52.864Z,101249.66
2018-12-30T04:16:21.189Z,101246.83
2018-12-30T04:18:49.518Z,101252.67
2018-12-30T04:21:17.847Z,101249.35
2018-12-30T04:23:46.169Z,101244.30
2018-12-30T04:26:15.535Z,101246.04
2018-12-30T04:28:42.820Z,101251.17
2018-12-30T04:31:11.158Z,101251.58
2018-12-30T04:33:39.476Z,101252.27
2018-12-30T04:36:07.799Z,101248.47
2018-12-30T04:38:36.127Z,101250.45
2018-12-30T04:41:04.466Z,101248.55
2018-12-30T04:43:32.792Z,101251.33
2018-12-30T04:46:01.120Z,101251.94
2018-12-30T04:48:29.453Z,101255.72
2018-12-30T04:50:57.783Z,101257.25
2018-12-30T04:53:26.131Z,101255.23
2018-12-30T04:55:54.937Z,101258.98
2018-12-30T04:58:23.254Z,101258.19
2018-12-30T05:00:51.579Z,101257.30
2018-12-30T05:03:19.907Z,101252.09
2018-12-30T05:05:48.230Z,101254.47
2018-12-30T05:08:16.553Z,101251.89
2018-12-30T05:10:44.886Z,101248.40
2018-12-30T05:13:13.216Z,101257.52
2018-12-30T05:15:42.141Z,101254.87
2018-12-30T05:18:10.466Z,101254.64
2018-12-30T05:20:38.797Z,101258.10
2018-12-30T05:23:07.496Z,101259.50
2018-12-30T05:25:35.821Z,101260.80
2018-12-30T05:28:04.162Z,101260.34
2018-12-30T05:30:32.503Z,101262.39
2018-12-30T05:33:00.831Z,101260.75
2018-12-30T05:35:29.159Z,101259.01
2018-12-30T05:37:57.752Z,101254.46
2018-12-30T05:40:26.070Z,101253.52
2018-12-30T05:42:54.408Z,101254.84
2018-12-30T05:45:22.748Z,101259.53
2018-12-30T05:47:51.078Z,101258.77
2018-12-30T05:50:19.397Z,101260.36
2018-12-30T05:52:47.727Z,101261.08
2018-12-30T05:55:16.050Z,101262.01
2018-12-30T05:57:44.380Z,101262.77
2018-12-30T06:00:12.698Z,101259.70
2018-12-30T06:02:41.023Z,101261.17
2018-12-30T06:05:09.355Z,101261.30
2018-12-30T06:07:37.679Z,101262.54
2018-12-30T06:10:06.014Z,101260.91
2018-12-30T06:12:34.346Z,101262.06
2018-12-30T06:15:02.676Z,101262.88
2018-12-30T06:17:31.004Z,101265.72
2018-12-30T06:19:59.332Z,101263.14
2018-12-30T06:22:27.725Z,101266.80
2018-12-30T06:24:55.988Z,101267.56
2018-12-30T06:27:24.318Z,101267.13
2018-12-30T06:29:52.644Z,101267.77
2018-12-30T06:32:20.961Z,101268.67
2018-12-30T06:34:49.277Z,101267.94
2018-12-30T06:37:17.610Z,101269.55
2018-12-30T06:39:45.925Z,101273.16
2018-12-30T06:42:14.253Z,101274.53
2018-12-30T06:44:42.579Z,101271.03
2018-12-30T06:47:10.892Z,101269.50
2018-12-30T06:49:39.218Z,101271.63
2018-12-30T06:52:07.544Z,101270.28
2018-12-30T06:54:35.867Z,101268.64
2018-12-30T06:57:04.186Z,101271.46
2018-12-30T06:59:32.510Z,101271.13
2018-12-30T07:02:00.832Z,101270.98
2018-12-30T07:04:29.141Z,101270.70
2018-12-30T07:06:57.464Z,101264.99
2018-12-30T07:09:25.774Z,101266.02
2018-12-30T07:11:54.097Z,101267.66
2018-12-30T07:14:22.426Z,101265.95
2018-12-30T07:16:50.733Z,101267.39
2018-12-30T07:19:19.067Z,101266.11
2018-12-30T07:21:47.408Z,101263.55
2018-12-30T07:24:15.729Z,101266.77
2018-12-30T07:26:44.051Z,101265.20
2018-12-30T07:29:12.387Z,101267.34
2018-12-30T07:31:40.702Z,101267.80
2018-12-30T07:34:09.055Z,101262.16
2018-12-30T07:36:37.383Z,101266.27
2018-12-30T07:39:05.716Z,101263.48
2018-12-30T07:41:34.039Z,101265.56
2018-12-30T07:44:02.693Z,101263.64
2018-12-30T07:46:31.025Z,101268.53
2018-12-30T07:48:59.364Z,101268.19
2018-12-30T07:51:27.696Z,101267.27
2018-12-30T07:53:56.325Z,101260.64
2018-12-30T07:56:24.652Z,101258.58
2018-12-30T07:58:53.011Z,101262.58
2018-12-30T08:01:21.333Z,101257.06
2018-12-30T08:03:49.646Z,101261.89
2018-12-30T08:06:17.976Z,101257.80
2018-12-30T08:08:46.304Z,101258.27
2018-12-30T08:11:14.626Z,101258.41
2018-12-30T08:13:42.960Z,101260.92
2018-12-30T08:16:11.297Z,101259.08
2018-12-30T08:18:39.613Z,101257.39
2018-12-30T08:21:07.940Z,101254.61
2018-12-30T08:23:36.276Z,101255.19
2018-12-30T08:26:04.604Z,101253.08
2018-12-30T08:28:32.928Z,101257.50
2018-12-30T08:31:01.312Z,101256.03
2018-12-30T08:33:29.639Z,101251.60
2018-12-30T08:35:57.968Z,101253.05
2018-12-30T08:38:26.300Z,101252.11
2018-12-30T08:40:54.625Z,101253.18
2018-12-30T08:43:22.961Z,101250.45
2018-12-30T08:45:51.292Z,101248.34
2018-12-30T08:48:19.707Z,101243.42
2018-12-30T08:50:48.018Z,101246.89
2018-12-30T08:53:16.553Z,101244.05
2018-12-30T08:55:44.668Z,101238.55
2018-12-30T08:58:12.975Z,101234.32
2018-12-30T09:00:41.544Z,101239.63
2018-12-30T09:03:09.656Z,101236.08
2018-12-30T09:05:37.987Z,101239.31
2018-12-30T09:08:06.312Z,101240.84
2018-12-30T09:10:34.673Z,101235.91
2018-12-30T09:13:03.008Z,101231.41
2018-12-30T09:15:31.752Z,101234.97
2018-12-30T09:18:00.065Z,101235.67
2018-12-30T09:20:28.391Z,101236.61
2018-12-30T09:22:56.735Z,101241.61
2018-12-30T09:25:25.376Z,101236.49
2018-12-30T09:27:53.715Z,101239.66
2018-12-30T09:30:22.038Z,101245.08
2018-12-30T09:32:50.366Z,101245.58
2018-12-30T09:35:19.202Z,101241.84
2018-12-30T09:37:47.544Z,101237.36
2018-12-30T09:40:16.115Z,101235.36
2018-12-30T09:42:44.210Z,101233.55
2018-12-30T09:45:12.624Z,101231.88
2018-12-30T09:47:40.863Z,101233.09
2018-12-30T09:50:09.429Z,101228.45
2018-12-30T09:52:37.541Z,101228.20
2018-12-30T09:55:06.167Z,101223.16
2018-12-30T09:57:34.487Z,101222.45
2018-12-30T10:00:02.833Z,101223.61
2018-12-30T10:02:31.157Z,101221.00
2018-12-30T10:04:59.493Z,101219.67
2018-12-30T10:07:27.824Z,101216.39
2018-12-30T10:09:56.162Z,101215.61
2018-12-30T10:12:24.491Z,101214.14
2018-12-30T10:14:52.830Z,101207.81
2018-12-30T10:17:21.165Z,101209.03
2018-12-30T10:19:49.494Z,101211.56
2018-12-30T10:22:17.836Z,101211.62
2018-12-30T10:24:46.179Z,101206.87
2018-12-30T10:27:14.518Z,101201.52
2018-12-30T10:29:42.859Z,101204.09
2018-12-30T10:32:12.136Z,101199.00
2018-12-30T10:34:40.524Z,101200.59
2018-12-30T10:37:08.847Z,101195.28
2018-12-30T10:39:37.182Z,101193.84
2018-12-30T10:42:05.501Z,101190.01
2018-12-30T10:44:33.829Z,101191.41
2018-12-30T10:47:02.158Z,101190.05
2018-12-30T10:49:30.496Z,101184.89
2018-12-30T10:51:58.845Z,101185.96
2018-12-30T10:54:27.164Z,101185.41
2018-12-30T10:56:55.505Z,101180.09
2018-12-30T10:59:23.835Z,101180.34
2018-12-30T11:01:52.239Z,101177.19
2018-12-30T11:04:20.491Z,101173.14
2018-12-30T11:06:49.541Z,101168.66
2018-12-30T11:09:17.893Z,101168.74
2018-12-30T11:11:46.772Z,101166.20
2018-12-30T11:14:14.902Z,101167.88
2018-12-30T11:16:43.208Z,101162.59
2018-12-30T11:19:11.597Z,101157.62
2018-12-30T11:21:41.008Z,101154.23
2018-12-30T11:24:09.345Z,101156.01
2018-12-30T11:26:37.682Z,101153.33
2018-12-30T11:29:06.359Z,101156.87
2018-12-30T11:31:34.695Z,101153.62
2018-12-30T11:34:03.044Z,101157.59
2018-12-30T11:36:31.377Z,101157.62
2018-12-30T11:38:59.725Z,101153.80
2018-12-30T11:41:28.064Z,101149.45
2018-12-30T11:43:56.420Z,101151.70
2018-12-30T11:46:24.756Z,101157.92
2018-12-30T11:48:53.086Z,101155.63
2018-12-30T11:51:21.413Z,101159.34
2018-12-30T11:53:49.772Z,101160.94
2018-12-30T11:56:18.078Z,101158.80
2018-12-30T11:58:46.394Z,101154.31
2018-12-30T12:01:14.721Z,101166.81
2018-12-30T12:03:43.050Z,101165.52
2018-12-30T12:06:11.383Z,101163.14
2018-12-30T12:08:39.705Z,101163.09
2018-12-30T12:11:08.059Z,101168.62
2018-12-30T12:13:36.379Z,101171.97
2018-12-30T12:16:04.720Z,101164.73
2018-12-30T12:18:33.056Z,101167.75
2018-12-30T12:21:01.380Z,101170.28
2018-12-30T12:23:29.699Z,101167.11
2018-12-30T12:25:58.045Z,101170.58
2018-12-30T12:28:26.388Z,101169.88
2018-12-30T12:30:54.741Z,101175.37
2018-12-30T12:33:23.061Z,101179.05
2018-12-30T12:35:51.601Z,101180.22
2018-12-30T12:38:20.945Z,101184.90
2018-12-30T12:40:49.273Z,101185.33
2018-12-30T12:43:17.611Z,101197.84
2018-12-30T12:45:45.947Z,101197.27
2018-12-30T12:48:14.587Z,101208.69
2018-12-30T12:50:43.169Z,101215.45
2018-12-30T12:53:11.509Z,101226.76
2018-12-30T12:55:39.886Z,101235.19
2018-12-30T12:58:08.139Z,101240.52
2018-12-30T13:00:36.462Z,101246.22
2018-12-30T13:03:04.784Z,101250.73
2018-12-30T13:05:33.104Z,101264.64
2018-12-30T13:08:02.110Z,101270.77
2018-12-30T13:10:30.438Z,101277.40
2018-12-30T13:12:58.769Z,101289.48
2018-12-30T13:15:27.083Z,101294.73
2018-12-30T13:17:55.408Z,101303.11
2018-12-30T13:20:23.737Z,101307.97
2018-12-30T13:22:52.052Z,101305.52
2018-12-30T13:25:20.382Z,101314.39
2018-12-30T13:27:48.698Z,101322.03
2018-12-30T13:30:17.018Z,101320.37
2018-12-30T13:32:45.349Z,101322.20
2018-12-30T13:35:13.694Z,101332.31
2018-12-30T13:37:42.108Z,101331.96
2018-12-30T13:40:10.352Z,101334.34
2018-12-30T13:42:38.676Z,101337.92
2018-12-30T13:45:07.268Z,101342.67
2018-12-30T13:47:35.595Z,101351.33
2018-12-30T13:50:03.947Z,101354.43
2018-12-30T13:52:32.458Z,101355.02
2018-12-30T13:55:00.913Z,101359.00
2018-12-30T13:57:29.233Z,101368.44
2018-12-30T13:59:57.562Z,101375.54
2018-12-30T14:02:26.347Z,101380.66
2018-12-30T14:04:54.687Z,101382.23
2018-12-30T14:07:23.041Z,101387.07
2018-12-30T14:09:53.097Z,101385.89
2018-12-30T14:12:21.420Z,101389.43
2018-12-30T14:14:49.782Z,101395.87
2018-12-30T14:17:18.154Z,101394.95
2018-12-30T14:19:46.479Z,101401.59
2018-12-30T14:22:14.902Z,101405.81
2018-12-30T14:24:43.213Z,101413.09
2018-12-30T14:27:11.526Z,101415.19
2018-12-30T14:29:39.841Z,101421.30
2018-12-30T14:32:09.360Z,101424.88
2018-12-30T14:34:37.453Z,101430.45
2018-12-30T14:37:05.767Z,101437.95
2018-12-30T14:39:34.086Z,101441.88
2018-12-30T14:42:02.414Z,101447.97
2018-12-30T14:44:30.764Z,101441.40
2018-12-30T14:46:59.100Z,101448.59
2018-12-30T14:49:27.435Z,101459.00
2018-12-30T14:51:55.779Z,101464.69
2018-12-30T14:54:24.116Z,101472.30
2018-12-30T14:56:52.443Z,101481.53
2018-12-30T14:59:21.078Z,101492.98
2018-12-30T15:01:50.217Z,101487.22
2018-12-30T15:04:18.543Z,101496.86
2018-12-30T15:06:46.867Z,101502.70
2018-12-30T15:09:15.199Z,101504.09
2018-12-30T15:11:43.558Z,101505.78
2018-12-30T15:14:11.879Z,101507.87
2018-12-30T15:16:40.201Z,101515.06
2018-12-30T15:19:08.548Z,101524.81
2018-12-30T15:21:36.875Z,101523.97
2018-12-30T15:24:05.207Z,101535.73
2018-12-30T15:26:33.533Z,101549.17
2018-12-30T15:29:01.865Z,101547.84
2018-12-30T15:31:30.204Z,101553.59
2018-12-30T15:33:58.517Z,101563.92
2018-12-30T15:36:26.838Z,101558.41
2018-12-30T15:38:55.173Z,101563.05
2018-12-30T15:41:23.510Z,101559.25
2018-12-30T15:43:51.992Z,101575.98
2018-12-30T15:46:20.304Z,101575.87
2018-12-30T15:48:48.626Z,101577.41
2018-12-30T15:51:16.967Z,101585.22
2018-12-30T15:53:46.107Z,101592.36
2018-12-30T15:56:14.439Z,101600.83
2018-12-30T15:58:42.777Z,101604.94
2018-12-30T16:01:11.132Z,101615.46
2018-12-30T16:03:39.441Z,101624.52
2018-12-30T16:06:07.760Z,101629.61
2018-12-30T16:08:36.078Z,101639.52
2018-12-30T16:11:04.410Z,101639.03
2018-12-30T16:13:33.166Z,101640.83
2018-12-30T16:16:01.522Z,101634.35
2018-12-30T16:18:29.856Z,101644.30
2018-12-30T16:20:58.177Z,101649.51
2018-12-30T16:23:26.542Z,101664.17
2018-12-30T16:25:54.857Z,101664.29
2018-12-30T16:28:24.138Z,101668.59
2018-12-30T16:30:51.519Z,101670.70
2018-12-30T16:33:20.964Z,101676.38
2018-12-30T16:35:49.093Z,101683.94
2018-12-30T16:38:21.513Z,101684.30
2018-12-30T16:40:49.731Z,101684.30
2018-12-30T16:43:18.470Z,101685.27
2018-12-30T16:45:46.387Z,101690.78
2018-12-30T16:48:14.713Z,101687.20
2018-12-30T16:50:43.117Z,101693.91
2018-12-30T16:53:13.370Z,101694.83
2018-12-30T16:55:41.694Z,101705.42
2018-12-30T16:58:10.033Z,101697.61
2018-12-30T17:00:38.361Z,101696.23
2018-12-30T17:03:06.833Z,101707.58
2018-12-30T17:05:35.584Z,101711.52
2018-12-30T17:08:03.898Z,101713.84
2018-12-30T17:10:32.224Z,101722.78
2018-12-30T17:13:00.544Z,101724.11
2018-12-30T17:15:28.884Z,101739.20
2018-12-30T17:17:57.212Z,101742.03
2018-12-30T17:20:25.525Z,101741.87
2018-12-30T17:22:53.849Z,101753.39
2018-12-30T17:25:22.184Z,101754.75
2018-12-30T17:27:50.567Z,101768.32
2018-12-30T17:30:18.889Z,101778.84
2018-12-30T17:32:47.450Z,101778.70
2018-12-30T17:35:15.783Z,101784.52
2018-12-30T17:37:44.105Z,101793.22
2018-12-30T17:40:12.442Z,101798.95
2018-12-30T17:42:41.482Z,101797.54
2018-12-30T17:45:09.846Z,101801.62
2018-12-30T17:47:38.166Z,101804.67
2018-12-30T17:50:06.490Z,101805.71
2018-12-30T17:52:35.736Z,101807.02
2018-12-30T17:55:04.057Z,101803.88
2018-12-30T17:57:32.661Z,101813.17
2018-12-30T18:00:00.984Z,101818.70
2018-12-30T18:02:29.313Z,101827.63
2018-12-30T18:04:57.915Z,101834.15
2018-12-30T18:07:27.080Z,101831.82
2018-12-30T18:09:55.626Z,101838.29
2018-12-30T18:12:23.784Z,101842.84
2018-12-30T18:14:52.080Z,101847.63
2018-12-30T18:17:20.434Z,101854.93
2018-12-30T18:19:48.759Z,101861.08
2018-12-30T18:22:17.106Z,101860.39
2018-12-30T18:24:45.438Z,101869.39
2018-12-30T18:27:14.055Z,101876.43
2018-12-30T18:29:42.560Z,101873.48
2018-12-30T18:32:10.891Z,101875.66
2018-12-30T18:34:39.351Z,101882.70
2018-12-30T18:37:07.680Z,101891.66
2018-12-30T18:39:36.019Z,101890.03
2018-12-30T18:42:04.564Z,101894.61
2018-12-30T18:44:32.911Z,101891.72
2018-12-30T18:47:01.678Z,101901.98
2018-12-30T18:49:30.093Z,101913.71
2018-12-30T18:51:58.430Z,101911.47
2018-12-30T18:54:27.181Z,101908.73
2018-12-30T18:56:56.367Z,101908.67
2018-12-30T18:59:24.830Z,101915.42
2018-12-30T19:01:53.279Z,101918.78
2018-12-30T19:04:22.276Z,101923.94
2018-12-30T19:06:50.883Z,101933.69
2018-12-30T19:09:19.108Z,101928.27
2018-12-30T19:11:47.787Z,101943.33
2018-12-30T19:14:17.038Z,101943.34
2018-12-30T19:16:45.507Z,101950.23
2018-12-30T19:19:13.822Z,101954.81
2018-12-30T19:21:42.138Z,101955.28
2018-12-30T19:24:10.471Z,101959.60
2018-12-30T19:26:38.796Z,101967.57
2018-12-30T19:29:07.133Z,101978.11
2018-12-30T19:31:35.742Z,101970.75
2018-12-30T19:34:04.083Z,101977.59
2018-12-30T19:36:32.426Z,101979.74
2018-12-30T19:39:00.767Z,101981.69
2018-12-30T19:41:29.098Z,101985.40
2018-12-30T19:43:57.409Z,101990.50
2018-12-30T19:46:25.749Z,101985.77
2018-12-30T19:48:54.076Z,101989.55
2018-12-30T19:51:22.414Z,101979.77
2018-12-30T19:53:50.738Z,101990.27
2018-12-30T19:56:22.060Z,101989.02
2018-12-30T19:58:47.370Z,101992.19
2018-12-30T20:01:15.688Z,101993.39
2018-12-30T20:03:44.025Z,101994.30
2018-12-30T20:06:12.350Z,101998.89
2018-12-30T20:08:40.688Z,102010.06
2018-12-30T20:11:10.806Z,102010.71
2018-12-30T20:13:39.148Z,102016.13
2018-12-30T20:16:07.481Z,102018.70
2018-12-30T20:18:35.873Z,102020.86
2018-12-30T20:21:04.293Z,102030.52
2018-12-30T20:23:32.623Z,102031.25
2018-12-30T20:26:01.279Z,102041.11
2018-12-30T20:28:29.595Z,102043.16
2018-12-30T20:30:58.244Z,102046.98
2018-12-30T20:33:26.568Z,102052.61
2018-12-30T20:35:54.986Z,102052.67
2018-12-30T20:38:23.271Z,102046.69
2018-12-30T20:40:51.599Z,102058.31
2018-12-30T20:43:20.782Z,102064.39
2018-12-30T20:45:49.336Z,102065.18
2018-12-30T20:48:17.741Z,102071.45
2018-12-30T20:50:45.895Z,102075.56
2018-12-30T20:53:14.279Z,102071.64
2018-12-30T20:55:42.632Z,102085.85
2018-12-30T20:58:11.060Z,102092.27
2018-12-30T21:00:39.415Z,102093.40
2018-12-30T21:03:07.739Z,102096.58
2018-12-30T21:05:36.084Z,102102.34
2018-12-30T21:08:04.594Z,102102.69
2018-12-30T21:10:32.961Z,102107.63
2018-12-30T21:13:01.288Z,102118.16
2018-12-30T21:15:29.634Z,102122.05
2018-12-30T21:17:57.984Z,102124.16
2018-12-30T21:20:26.312Z,102128.31
2018-12-30T21:22:54.632Z,102132.25
2018-12-30T21:25:22.946Z,102132.98
2018-12-30T21:27:51.271Z,102131.59
2018-12-30T21:30:19.604Z,102134.02
2018-12-30T21:32:47.929Z,102134.66
2018-12-30T21:35:16.255Z,102140.41
2018-12-30T21:37:44.591Z,102140.88
2018-12-30T21:40:13.507Z,102137.47
2018-12-30T21:42:43.948Z,102143.02
2018-12-30T21:45:10.160Z,102145.22
2018-12-30T21:47:38.511Z,102147.83
2018-12-30T21:50:06.852Z,102147.33
2018-12-30T21:52:35.493Z,102141.72
2018-12-30T21:55:03.837Z,102146.88
2018-12-30T21:57:32.167Z,102150.78
2018-12-30T22:00:00.480Z,102151.69
2018-12-30T22:02:28.814Z,102151.73
2018-12-30T22:04:57.133Z,102153.45
2018-12-30T22:07:25.464Z,102153.41
2018-12-30T22:09:53.788Z,102152.58
2018-12-30T22:12:22.098Z,102155.13
2018-12-30T22:14:59.515Z,102159.08
2018-12-30T22:17:25.173Z,102164.66
2018-12-30T22:19:57.239Z,102168.56
2018-12-30T22:22:29.460Z,102169.23
2018-12-30T22:25:01.532Z,102173.16
2018-12-30T22:27:31.939Z,102177.90
2018-12-30T22:30:02.233Z,102180.91
2018-12-30T22:32:30.489Z,102179.28
2018-12-30T22:34:58.814Z,102177.48
2018-12-30T22:37:27.148Z,102177.88
2018-12-30T22:40:01.003Z,102179.28
2018-12-30T22:42:32.766Z,102182.29
2018-12-30T22:44:57.184Z,102180.36
2018-12-30T22:47:25.877Z,102188.30
2018-12-30T22:49:57.234Z,102192.30
2018-12-30T22:52:23.175Z,102192.42
2018-12-30T22:54:51.499Z,102192.47
2018-12-30T22:57:20.775Z,102191.85
2018-12-30T22:59:51.064Z,102192.63
2018-12-30T23:02:21.967Z,102198.05
2018-12-30T23:04:50.298Z,102198.46
2018-12-30T23:07:18.621Z,102200.52
2018-12-30T23:09:46.947Z,102206.86
2018-12-30T23:12:17.564Z,102212.06
2018-12-30T23:14:45.892Z,102220.22
2018-12-30T23:17:14.210Z,102220.72
2018-12-30T23:19:42.542Z,102224.47
2018-12-30T23:22:10.875Z,102230.14
2018-12-30T23:24:39.198Z,102225.67
2018-12-30T23:27:07.532Z,102229.98
2018-12-30T23:29:35.861Z,102231.35
2018-12-30T23:32:04.192Z,102238.05
2018-12-30T23:34:32.516Z,102239.70
2018-12-30T23:37:01.072Z,102249.93
2018-12-30T23:39:29.170Z,102252.07
2018-12-30T23:41:57.754Z,102250.03
2018-12-30T23:44:25.842Z,102250.51
2018-12-30T23:46:54.515Z,102259.42
2018-12-30T23:49:23.174Z,102260.95
2018-12-30T23:51:51.495Z,102259.91
2018-12-30T23:54:21.717Z,102262.74
2018-12-30T23:56:50.048Z,102263.42
2018-12-30T23:59:18.373Z,102269.35
